sensor_id;sensor_type;location;lat;lon;timestamp;P1;durP1;ratioP1;P2;durP2;ratioP2
28653;SDS011;24320;56.980;24.336;2023-02-15T01:27:10;30.85;;;12.82;;
28653;SDS011;24320;56.980;24.336;2023-02-15T01:32:09;26.92;;;13.05;;
28653;SDS011;24320;56.980;24.336;2023-02-15T01:34:42;40.85;;;14.32;;
28653;SDS011;24320;56.980;24.336;2023-02-15T01:37:14;31.58;;;13.35;;
28653;SDS011;24320;56.980;24.336;2023-02-15T01:39:48;36.25;;;14.02;;
28653;SDS011;24320;56.980;24.336;2023-02-15T01:42:23;38.08;;;14.77;;
28653;SDS011;24320;56.980;24.336;2023-02-15T01:45:00;35.05;;;14.45;;
28653;SDS011;24320;56.980;24.336;2023-02-15T01:47:44;32.75;;;14.25;;
28653;SDS011;24320;56.980;24.336;2023-02-15T01:50:18;27.85;;;13.63;;
28653;SDS011;24320;56.980;24.336;2023-02-15T01:52:55;25.92;;;12.88;;
28653;SDS011;24320;56.980;24.336;2023-02-15T02:01:00;24.40;;;10.70;;
28653;SDS011;24320;56.980;24.336;2023-02-15T02:08:42;27.02;;;11.80;;
28653;SDS011;24320;56.980;24.336;2023-02-15T02:11:19;28.98;;;11.10;;
28653;SDS011;24320;56.980;24.336;2023-02-15T02:13:59;27.50;;;11.35;;
28653;SDS011;24320;56.980;24.336;2023-02-15T02:36:08;28.63;;;12.05;;
28653;SDS011;24320;56.980;24.336;2023-02-15T02:44:52;25.48;;;11.95;;
28653;SDS011;24320;56.980;24.336;2023-02-15T02:50:39;33.05;;;11.77;;
28653;SDS011;24320;56.980;24.336;2023-02-15T02:53:14;27.90;;;10.20;;
28653;SDS011;24320;56.980;24.336;2023-02-15T02:55:53;22.77;;;9.40;;
28653;SDS011;24320;56.980;24.336;2023-02-15T02:59:01;31.63;;;12.48;;
28653;SDS011;24320;56.980;24.336;2023-02-15T03:01:41;43.35;;;15.85;;
28653;SDS011;24320;56.980;24.336;2023-02-15T03:04:32;43.22;;;16.55;;
28653;SDS011;24320;56.980;24.336;2023-02-15T03:07:12;40.53;;;15.88;;
28653;SDS011;24320;56.980;24.336;2023-02-15T03:09:53;34.42;;;13.45;;
28653;SDS011;24320;56.980;24.336;2023-02-15T03:12:32;28.17;;;12.23;;
28653;SDS011;24320;56.980;24.336;2023-02-15T03:15:17;30.73;;;11.75;;
28653;SDS011;24320;56.980;24.336;2023-02-15T03:17:57;25.15;;;10.80;;
28653;SDS011;24320;56.980;24.336;2023-02-15T03:20:36;23.95;;;11.48;;
28653;SDS011;24320;56.980;24.336;2023-02-15T03:23:13;28.73;;;11.02;;
28653;SDS011;24320;56.980;24.336;2023-02-15T03:25:52;22.13;;;10.25;;
28653;SDS011;24320;56.980;24.336;2023-02-15T03:28:38;25.38;;;10.93;;
28653;SDS011;24320;56.980;24.336;2023-02-15T03:33:51;35.42;;;9.60;;
28653;SDS011;24320;56.980;24.336;2023-02-15T03:36:36;24.77;;;10.40;;
28653;SDS011;24320;56.980;24.336;2023-02-15T03:39:36;22.00;;;9.80;;
28653;SDS011;24320;56.980;24.336;2023-02-15T03:42:26;23.42;;;9.57;;
28653;SDS011;24320;56.980;24.336;2023-02-15T03:47:41;23.60;;;10.93;;
28653;SDS011;24320;56.980;24.336;2023-02-15T03:53:07;21.33;;;8.98;;
28653;SDS011;24320;56.980;24.336;2023-02-15T03:55:39;20.95;;;8.25;;
28653;SDS011;24320;56.980;24.336;2023-02-15T03:58:10;18.10;;;8.25;;
28653;SDS011;24320;56.980;24.336;2023-02-15T04:01:00;24.42;;;7.25;;
28653;SDS011;24320;56.980;24.336;2023-02-15T04:04:03;20.38;;;7.95;;
28653;SDS011;24320;56.980;24.336;2023-02-15T04:06:50;15.75;;;7.15;;
28653;SDS011;24320;56.980;24.336;2023-02-15T04:09:22;18.88;;;8.05;;
28653;SDS011;24320;56.980;24.336;2023-02-15T04:12:12;24.85;;;7.65;;
28653;SDS011;24320;56.980;24.336;2023-02-15T04:14:44;21.08;;;6.65;;
28653;SDS011;24320;56.980;24.336;2023-02-15T04:17:36;14.30;;;6.40;;
28653;SDS011;24320;56.980;24.336;2023-02-15T04:20:07;18.02;;;7.30;;
28653;SDS011;24320;56.980;24.336;2023-02-15T04:22:59;25.30;;;7.53;;
28653;SDS011;24320;56.980;24.336;2023-02-15T04:25:49;19.10;;;7.30;;
28653;SDS011;24320;56.980;24.336;2023-02-15T04:28:22;14.48;;;6.35;;
28653;SDS011;24320;56.980;24.336;2023-02-15T04:30:57;17.33;;;6.97;;
28653;SDS011;24320;56.980;24.336;2023-02-15T04:33:30;16.77;;;6.95;;
28653;SDS011;24320;56.980;24.336;2023-02-15T04:36:03;17.42;;;7.13;;
28653;SDS011;24320;56.980;24.336;2023-02-15T04:38:35;26.02;;;8.00;;
28653;SDS011;24320;56.980;24.336;2023-02-15T04:41:08;18.35;;;8.65;;
28653;SDS011;24320;56.980;24.336;2023-02-15T04:43:43;20.48;;;8.30;;
28653;SDS011;24320;56.980;24.336;2023-02-15T04:46:14;24.55;;;8.88;;
28653;SDS011;24320;56.980;24.336;2023-02-15T04:48:46;15.80;;;7.63;;
28653;SDS011;24320;56.980;24.336;2023-02-15T04:51:20;20.10;;;9.90;;
28653;SDS011;24320;56.980;24.336;2023-02-15T04:53:53;51.50;;;16.42;;
28653;SDS011;24320;56.980;24.336;2023-02-15T04:56:26;28.58;;;11.25;;
28653;SDS011;24320;56.980;24.336;2023-02-15T04:59:03;21.20;;;8.55;;
28653;SDS011;24320;56.980;24.336;2023-02-15T05:01:40;22.27;;;9.43;;
28653;SDS011;24320;56.980;24.336;2023-02-15T05:04:16;21.38;;;8.82;;
28653;SDS011;24320;56.980;24.336;2023-02-15T05:06:51;18.98;;;8.13;;
28653;SDS011;24320;56.980;24.336;2023-02-15T05:09:22;29.35;;;11.57;;
28653;SDS011;24320;56.980;24.336;2023-02-15T05:11:58;28.60;;;11.68;;
28653;SDS011;24320;56.980;24.336;2023-02-15T05:14:31;27.88;;;11.43;;
28653;SDS011;24320;56.980;24.336;2023-02-15T05:17:07;29.50;;;10.57;;
28653;SDS011;24320;56.980;24.336;2023-02-15T05:19:37;29.48;;;10.45;;
28653;SDS011;24320;56.980;24.336;2023-02-15T05:22:09;22.70;;;9.25;;
28653;SDS011;24320;56.980;24.336;2023-02-15T05:24:39;19.90;;;8.45;;
28653;SDS011;24320;56.980;24.336;2023-02-15T05:27:27;21.75;;;7.30;;
28653;SDS011;24320;56.980;24.336;2023-02-15T05:30:19;18.75;;;7.30;;
28653;SDS011;24320;56.980;24.336;2023-02-15T05:32:52;19.63;;;7.53;;
28653;SDS011;24320;56.980;24.336;2023-02-15T05:35:27;17.48;;;6.55;;
28653;SDS011;24320;56.980;24.336;2023-02-15T05:37:56;13.50;;;6.32;;
28653;SDS011;24320;56.980;24.336;2023-02-15T05:40:29;23.13;;;6.40;;
28653;SDS011;24320;56.980;24.336;2023-02-15T05:45:35;11.65;;;6.35;;
28653;SDS011;24320;56.980;24.336;2023-02-15T05:48:08;16.38;;;6.60;;
28653;SDS011;24320;56.980;24.336;2023-02-15T05:50:38;15.18;;;6.88;;
28653;SDS011;24320;56.980;24.336;2023-02-15T05:53:11;20.52;;;7.93;;
28653;SDS011;24320;56.980;24.336;2023-02-15T05:55:41;18.63;;;7.47;;
28653;SDS011;24320;56.980;24.336;2023-02-15T05:58:12;17.05;;;6.13;;
28653;SDS011;24320;56.980;24.336;2023-02-15T06:00:44;15.52;;;6.40;;
28653;SDS011;24320;56.980;24.336;2023-02-15T06:03:16;17.70;;;6.43;;
28653;SDS011;24320;56.980;24.336;2023-02-15T06:05:52;16.52;;;7.18;;
28653;SDS011;24320;56.980;24.336;2023-02-15T06:08:24;19.65;;;7.55;;
28653;SDS011;24320;56.980;24.336;2023-02-15T06:10:59;17.08;;;7.38;;
28653;SDS011;24320;56.980;24.336;2023-02-15T06:13:29;19.65;;;7.05;;
28653;SDS011;24320;56.980;24.336;2023-02-15T06:16:07;15.00;;;6.05;;
28653;SDS011;24320;56.980;24.336;2023-02-15T06:18:38;21.10;;;8.13;;
28653;SDS011;24320;56.980;24.336;2023-02-15T06:21:12;20.83;;;7.60;;
28653;SDS011;24320;56.980;24.336;2023-02-15T06:23:44;13.65;;;6.80;;
28653;SDS011;24320;56.980;24.336;2023-02-15T06:26:17;22.40;;;7.28;;
28653;SDS011;24320;56.980;24.336;2023-02-15T06:28:49;25.13;;;8.30;;
28653;SDS011;24320;56.980;24.336;2023-02-15T06:31:19;17.92;;;7.57;;
28653;SDS011;24320;56.980;24.336;2023-02-15T06:33:52;23.55;;;8.80;;
28653;SDS011;24320;56.980;24.336;2023-02-15T06:36:29;18.33;;;7.93;;
28653;SDS011;24320;56.980;24.336;2023-02-15T06:39:03;27.10;;;8.95;;
28653;SDS011;24320;56.980;24.336;2023-02-15T06:41:37;25.65;;;8.80;;
28653;SDS011;24320;56.980;24.336;2023-02-15T06:44:07;21.98;;;9.68;;
28653;SDS011;24320;56.980;24.336;2023-02-15T06:46:39;21.88;;;9.73;;
28653;SDS011;24320;56.980;24.336;2023-02-15T06:49:11;28.52;;;8.30;;
28653;SDS011;24320;56.980;24.336;2023-02-15T11:59:14;16.15;;;7.05;;
28653;SDS011;24320;56.980;24.336;2023-02-15T12:02:10;15.50;;;6.93;;
28653;SDS011;24320;56.980;24.336;2023-02-15T12:04:48;13.98;;;6.93;;
28653;SDS011;24320;56.980;24.336;2023-02-15T12:15:45;14.30;;;6.80;;
28653;SDS011;24320;56.980;24.336;2023-02-15T12:20:46;19.20;;;7.63;;
28653;SDS011;24320;56.980;24.336;2023-02-15T12:23:14;19.77;;;8.52;;
28653;SDS011;24320;56.980;24.336;2023-02-15T12:25:42;18.75;;;8.40;;
28653;SDS011;24320;56.980;24.336;2023-02-15T12:28:32;22.80;;;9.88;;
28653;SDS011;24320;56.980;24.336;2023-02-15T12:31:39;22.10;;;9.55;;
28653;SDS011;24320;56.980;24.336;2023-02-15T12:34:03;14.98;;;7.88;;
28653;SDS011;24320;56.980;24.336;2023-02-15T12:36:49;15.77;;;7.10;;
28653;SDS011;24320;56.980;24.336;2023-02-15T12:39:30;14.60;;;6.90;;
28653;SDS011;24320;56.980;24.336;2023-02-15T12:42:02;11.95;;;6.75;;
28653;SDS011;24320;56.980;24.336;2023-02-15T12:44:33;17.13;;;8.18;;
28653;SDS011;24320;56.980;24.336;2023-02-15T12:49:43;12.95;;;6.63;;
28653;SDS011;24320;56.980;24.336;2023-02-15T12:54:44;15.47;;;6.77;;
28653;SDS011;24320;56.980;24.336;2023-02-15T13:02:25;13.18;;;5.93;;
28653;SDS011;24320;56.980;24.336;2023-02-15T13:05:04;12.95;;;6.20;;
28653;SDS011;24320;56.980;24.336;2023-02-15T13:07:45;13.10;;;6.22;;
28653;SDS011;24320;56.980;24.336;2023-02-15T13:12:55;49.93;;;19.63;;
28653;SDS011;24320;56.980;24.336;2023-02-15T13:15:25;17.67;;;8.55;;
28653;SDS011;24320;56.980;24.336;2023-02-15T13:18:17;13.90;;;6.68;;
28653;SDS011;24320;56.980;24.336;2023-02-15T13:20:53;11.15;;;5.50;;
28653;SDS011;24320;56.980;24.336;2023-02-15T13:23:25;18.88;;;7.38;;
28653;SDS011;24320;56.980;24.336;2023-02-15T13:25:55;11.13;;;5.85;;
28653;SDS011;24320;56.980;24.336;2023-02-15T13:28:31;10.57;;;5.25;;
28653;SDS011;24320;56.980;24.336;2023-02-15T13:31:11;14.00;;;5.25;;
28653;SDS011;24320;56.980;24.336;2023-02-15T13:33:46;10.48;;;4.75;;
28653;SDS011;24320;56.980;24.336;2023-02-15T13:36:36;8.95;;;4.32;;
28653;SDS011;24320;56.980;24.336;2023-02-15T13:39:23;10.57;;;5.18;;
28653;SDS011;24320;56.980;24.336;2023-02-15T13:42:02;11.70;;;6.80;;
28653;SDS011;24320;56.980;24.336;2023-02-15T13:44:42;10.52;;;5.20;;
28653;SDS011;24320;56.980;24.336;2023-02-15T13:47:20;11.73;;;4.40;;
28653;SDS011;24320;56.980;24.336;2023-02-15T13:50:10;10.90;;;5.35;;
28653;SDS011;24320;56.980;24.336;2023-02-15T14:01:10;10.35;;;4.68;;
28653;SDS011;24320;56.980;24.336;2023-02-15T14:03:49;13.63;;;5.68;;
28653;SDS011;24320;56.980;24.336;2023-02-15T14:11:56;13.40;;;7.63;;
28653;SDS011;24320;56.980;24.336;2023-02-15T14:20:23;12.95;;;5.47;;
28653;SDS011;24320;56.980;24.336;2023-02-15T14:25:46;11.82;;;6.10;;
28653;SDS011;24320;56.980;24.336;2023-02-15T14:31:06;16.15;;;8.32;;
28653;SDS011;24320;56.980;24.336;2023-02-15T14:33:39;14.48;;;6.72;;
28653;SDS011;24320;56.980;24.336;2023-02-15T14:36:11;11.27;;;5.88;;
28653;SDS011;24320;56.980;24.336;2023-02-15T14:41:35;14.02;;;5.90;;
28653;SDS011;24320;56.980;24.336;2023-02-15T14:44:22;13.75;;;6.75;;
28653;SDS011;24320;56.980;24.336;2023-02-15T14:47:04;11.30;;;5.68;;
28653;SDS011;24320;56.980;24.336;2023-02-15T14:49:39;11.18;;;6.18;;
28653;SDS011;24320;56.980;24.336;2023-02-15T19:35:54;18.80;;;6.25;;
28653;SDS011;24320;56.980;24.336;2023-02-15T19:38:24;14.27;;;5.50;;
28653;SDS011;24320;56.980;24.336;2023-02-15T19:40:54;16.40;;;6.82;;
28653;SDS011;24320;56.980;24.336;2023-02-15T19:43:26;16.02;;;6.78;;
28653;SDS011;24320;56.980;24.336;2023-02-15T19:45:55;13.35;;;5.88;;
28653;SDS011;24320;56.980;24.336;2023-02-15T19:48:22;11.82;;;6.25;;
28653;SDS011;24320;56.980;24.336;2023-02-15T19:50:50;17.60;;;6.70;;
28653;SDS011;24320;56.980;24.336;2023-02-15T19:53:24;17.55;;;6.28;;
28653;SDS011;24320;56.980;24.336;2023-02-15T19:55:53;15.07;;;6.28;;
28653;SDS011;24320;56.980;24.336;2023-02-15T19:58:20;16.30;;;6.85;;
28653;SDS011;24320;56.980;24.336;2023-02-15T20:00:48;17.95;;;6.00;;
28653;SDS011;24320;56.980;24.336;2023-02-15T20:03:16;12.80;;;6.60;;
28653;SDS011;24320;56.980;24.336;2023-02-15T20:05:43;16.20;;;6.50;;
28653;SDS011;24320;56.980;24.336;2023-02-15T20:08:17;12.77;;;6.05;;
28653;SDS011;24320;56.980;24.336;2023-02-15T20:10:47;19.45;;;6.20;;
28653;SDS011;24320;56.980;24.336;2023-02-15T20:13:15;12.82;;;6.03;;
28653;SDS011;24320;56.980;24.336;2023-02-15T20:15:43;15.45;;;6.35;;
28653;SDS011;24320;56.980;24.336;2023-02-15T20:18:11;12.43;;;6.03;;
28653;SDS011;24320;56.980;24.336;2023-02-15T20:23:17;16.45;;;5.75;;
28653;SDS011;24320;56.980;24.336;2023-02-15T20:25:47;14.43;;;5.75;;
28653;SDS011;24320;56.980;24.336;2023-02-15T20:28:16;10.73;;;4.80;;
28653;SDS011;24320;56.980;24.336;2023-02-15T20:30:49;12.23;;;5.18;;
28653;SDS011;24320;56.980;24.336;2023-02-15T20:33:17;15.82;;;5.60;;
28653;SDS011;24320;56.980;24.336;2023-02-15T20:35:46;14.80;;;5.15;;
28653;SDS011;24320;56.980;24.336;2023-02-15T20:38:34;12.82;;;5.65;;
28653;SDS011;24320;56.980;24.336;2023-02-15T20:41:01;13.73;;;5.50;;
28653;SDS011;24320;56.980;24.336;2023-02-15T20:43:46;17.63;;;4.93;;
28653;SDS011;24320;56.980;24.336;2023-02-15T20:46:13;13.90;;;5.93;;
28653;SDS011;24320;56.980;24.336;2023-02-15T20:48:41;12.60;;;5.50;;
28653;SDS011;24320;56.980;24.336;2023-02-15T20:51:17;13.82;;;5.90;;
28653;SDS011;24320;56.980;24.336;2023-02-15T20:53:46;15.77;;;6.40;;
28653;SDS011;24320;56.980;24.336;2023-02-15T20:56:20;14.40;;;5.55;;
28653;SDS011;24320;56.980;24.336;2023-02-15T20:58:48;14.77;;;5.28;;
28653;SDS011;24320;56.980;24.336;2023-02-15T21:01:16;15.70;;;6.10;;
28653;SDS011;24320;56.980;24.336;2023-02-15T21:03:46;14.13;;;5.25;;
28653;SDS011;24320;56.980;24.336;2023-02-15T21:06:14;10.05;;;4.97;;
28653;SDS011;24320;56.980;24.336;2023-02-15T21:08:42;12.93;;;4.95;;
28653;SDS011;24320;56.980;24.336;2023-02-15T21:11:14;16.02;;;6.13;;
28653;SDS011;24320;56.980;24.336;2023-02-15T21:13:46;10.63;;;4.65;;
28653;SDS011;24320;56.980;24.336;2023-02-15T21:16:15;14.90;;;5.85;;
28653;SDS011;24320;56.980;24.336;2023-02-15T21:18:42;15.85;;;6.05;;
28653;SDS011;24320;56.980;24.336;2023-02-15T21:21:20;11.82;;;5.38;;
28653;SDS011;24320;56.980;24.336;2023-02-15T21:23:49;12.95;;;5.90;;
28653;SDS011;24320;56.980;24.336;2023-02-15T21:26:18;12.82;;;6.40;;
28653;SDS011;24320;56.980;24.336;2023-02-15T21:28:47;13.98;;;5.25;;
28653;SDS011;24320;56.980;24.336;2023-02-15T21:31:22;14.52;;;6.68;;
28653;SDS011;24320;56.980;24.336;2023-02-15T21:33:50;13.23;;;6.32;;
28653;SDS011;24320;56.980;24.336;2023-02-15T21:36:18;16.45;;;6.70;;
28653;SDS011;24320;56.980;24.336;2023-02-15T21:38:48;12.38;;;5.50;;
28653;SDS011;24320;56.980;24.336;2023-02-15T21:41:16;14.88;;;5.80;;
28653;SDS011;24320;56.980;24.336;2023-02-15T21:44:11;10.98;;;5.22;;
28653;SDS011;24320;56.980;24.336;2023-02-15T21:47:03;15.90;;;6.53;;
28653;SDS011;24320;56.980;24.336;2023-02-15T21:49:49;15.05;;;5.97;;
28653;SDS011;24320;56.980;24.336;2023-02-15T21:52:17;15.82;;;5.35;;
28653;SDS011;24320;56.980;24.336;2023-02-15T21:54:48;15.68;;;6.30;;
28653;SDS011;24320;56.980;24.336;2023-02-15T21:57:16;12.25;;;6.18;;
28653;SDS011;24320;56.980;24.336;2023-02-15T21:59:45;11.57;;;4.67;;
28653;SDS011;24320;56.980;24.336;2023-02-15T22:02:26;25.42;;;6.63;;
28653;SDS011;24320;56.980;24.336;2023-02-15T22:04:55;20.33;;;6.38;;
28653;SDS011;24320;56.980;24.336;2023-02-15T22:07:23;14.68;;;6.40;;
28653;SDS011;24320;56.980;24.336;2023-02-15T22:09:50;13.63;;;6.30;;
28653;SDS011;24320;56.980;24.336;2023-02-15T22:12:17;14.35;;;6.15;;
28653;SDS011;24320;56.980;24.336;2023-02-15T22:14:49;13.25;;;6.28;;
28653;SDS011;24320;56.980;24.336;2023-02-15T22:17:20;16.50;;;6.57;;
28653;SDS011;24320;56.980;24.336;2023-02-15T22:19:50;14.98;;;7.03;;
28653;SDS011;24320;56.980;24.336;2023-02-15T22:22:17;16.10;;;6.55;;
28653;SDS011;24320;56.980;24.336;2023-02-15T22:24:44;16.48;;;6.65;;
28653;SDS011;24320;56.980;24.336;2023-02-15T22:29:44;17.05;;;6.15;;
28653;SDS011;24320;56.980;24.336;2023-02-15T22:32:16;16.17;;;6.28;;
28653;SDS011;24320;56.980;24.336;2023-02-15T22:34:45;14.18;;;6.32;;
28653;SDS011;24320;56.980;24.336;2023-02-15T22:37:12;13.15;;;6.22;;
28653;SDS011;24320;56.980;24.336;2023-02-15T22:39:40;19.48;;;7.03;;
28653;SDS011;24320;56.980;24.336;2023-02-15T22:42:24;13.23;;;6.25;;
28653;SDS011;24320;56.980;24.336;2023-02-15T22:44:53;16.70;;;6.30;;
28653;SDS011;24320;56.980;24.336;2023-02-15T22:47:23;17.75;;;7.63;;
28653;SDS011;24320;56.980;24.336;2023-02-15T22:49:53;20.55;;;6.93;;
28653;SDS011;24320;56.980;24.336;2023-02-15T22:52:20;17.70;;;7.18;;
28653;SDS011;24320;56.980;24.336;2023-02-15T22:54:47;16.67;;;6.95;;
28653;SDS011;24320;56.980;24.336;2023-02-15T22:57:17;15.32;;;6.53;;
28653;SDS011;24320;56.980;24.336;2023-02-15T22:59:50;20.58;;;7.00;;
28653;SDS011;24320;56.980;24.336;2023-02-15T23:02:17;19.85;;;7.20;;
28653;SDS011;24320;56.980;24.336;2023-02-15T23:04:44;24.83;;;8.07;;
28653;SDS011;24320;56.980;24.336;2023-02-15T23:07:13;15.85;;;6.72;;
28653;SDS011;24320;56.980;24.336;2023-02-15T23:09:42;18.60;;;7.22;;
28653;SDS011;24320;56.980;24.336;2023-02-15T23:12:23;17.17;;;6.93;;
28653;SDS011;24320;56.980;24.336;2023-02-15T23:14:52;17.70;;;7.03;;
28653;SDS011;24320;56.980;24.336;2023-02-15T23:17:20;17.35;;;7.47;;
28653;SDS011;24320;56.980;24.336;2023-02-15T23:19:48;19.50;;;7.45;;
28653;SDS011;24320;56.980;24.336;2023-02-15T23:22:15;15.40;;;6.63;;
28653;SDS011;24320;56.980;24.336;2023-02-15T23:24:44;13.93;;;6.22;;
28653;SDS011;24320;56.980;24.336;2023-02-15T23:27:17;17.02;;;7.47;;
28653;SDS011;24320;56.980;24.336;2023-02-15T23:30:04;21.88;;;7.30;;
28653;SDS011;24320;56.980;24.336;2023-02-15T23:32:37;18.17;;;7.53;;
28653;SDS011;24320;56.980;24.336;2023-02-15T23:35:17;20.52;;;7.40;;
28653;SDS011;24320;56.980;24.336;2023-02-15T23:37:45;18.52;;;8.13;;
28653;SDS011;24320;56.980;24.336;2023-02-15T23:40:13;18.50;;;7.53;;
28653;SDS011;24320;56.980;24.336;2023-02-15T23:43:03;28.88;;;7.22;;
28653;SDS011;24320;56.980;24.336;2023-02-15T23:45:33;21.55;;;8.07;;
28653;SDS011;24320;56.980;24.336;2023-02-15T23:48:08;24.23;;;7.30;;
28653;SDS011;24320;56.980;24.336;2023-02-15T23:50:57;23.98;;;7.18;;
28653;SDS011;24320;56.980;24.336;2023-02-15T23:53:25;17.48;;;7.82;;
28653;SDS011;24320;56.980;24.336;2023-02-15T23:55:52;20.35;;;6.50;;
28653;SDS011;24320;56.980;24.336;2023-02-15T23:58:20;18.00;;;7.50;;
